Aqaba, Jordan

12:10 PM EEST on September 02, 2014 (GMT +0300)
Aqaba International | Change Station
CLOSE
Current Station
Airport
Location: Aqaba,
Elevation: 174 ft
Nearby Weather Stations

Elev 174 ft 29.61 °N, 35.02 °E | Updated 10 minutes ago

Clear
Clear
86 °F
Feels Like 87 °F
N
8
Wind Variable Wind from North

Today
High -- | Low -- °F
--% Chance of Precip.
Yesterday
High -- | Low -- °F
Precip. -- in
6:17 AM 7:01 PM
Waxing Crescent, 49% visible
Pressure 29.77 in
Visibility -9999.0 miles
Clouds
Heat Index 87 °F
Dew Point 63 °F
Humidity 45%
Rainfall 0.00 in
Snow Depth Not available.
UV Not available.
Pollen Not available.
Air Quality Not available.
Flu Activity Not available.
METAR OJAQ 020900Z 01007KT CAVOK 30/17 Q1008 NOSIG

More Conditions Fewer Conditions

Pressure 29.77 in
Visibility -9999.0 miles
Clouds
Heat Index 87 °F
Dew Point 63 °F
Humidity 45%
Rainfall 0.00 in
Snow Depth Not available.
UV Not available.
Pollen Not available.
Air Quality Not available.
Flu Activity Not available.
METAR OJAQ 020900Z 01007KT CAVOK 30/17 Q1008 NOSIG

More Conditions Fewer Conditions

10-Day Weather Forecast

Almanac

Astronomy

Sep. 02, 2014 Rise Set
Actual Time 6:17 AM EEST 7:01 PM EEST
Civil Twilight 5:53 AM EEST 7:25 PM EEST
Nautical Twilight 5:24 AM EEST 7:53 PM EEST
Astronomical Twilight 4:55 AM EEST 8:23 PM EEST
Moon 1:10 PM EEST No Moon Set
Length of Visible Light 13h 32m
Length of Day
12h 43m
Tomorrow will be 1m 43s shorter.
Waxing Crescent, 49% of the Moon is Illuminated
Today
Waxing Crescent
Sep 2
First Quarter
Sep 8
Full
Sep 15
Last Quarter
Sep 24
New

Yesterday's Extremes

Country Highs Country Lows

Community

WunderPhotos

Upload Photos

1,749,587 photos uploaded!

WunderBlogs® & News

Nearby

Snow Depth

Not available.

Earthquake Activity

City Distance Mag. Time & Date
No recent earthquake activity has been reported nearby.
Minimum magnitude displayed is 2.5.

Coastal Water Temperatures

Place Temperature
No Stations Reporting

Nearby Weather Stations